Time;durP1;ratioP1;P1;durP2;ratioP2;P2;SDS_P1;SDS_P2;PMS_P1;PMS_P2;Temp;Humidity;BMP_temperature;BMP_pressure;BME280_temperature;BME280_humidity;BME280_pressure;Samples;Min_cycle;Max_cycle;Signal;HPM_P1;HPM_P2
2023/12/03 00:00:02;;;;;;;16.83;11.15;;;;;;;9.21;100.00;97310.94;5054796;28;20275;-55
2023/12/03 00:02:28;;;;;;;16.88;10.40;;;;;;;8.98;100.00;97283.56;5054748;28;20655;-55
2023/12/03 00:04:54;;;;;;;18.88;10.45;;;;;;;9.03;100.00;97306.44;5054723;28;20255;-55
2023/12/03 00:07:21;;;;;;;17.88;10.35;;;;;;;9.26;100.00;97334.63;5054954;28;20651;-55
2023/12/03 00:09:47;;;;;;;17.70;10.43;;;;;;;9.17;100.00;97309.56;5054897;28;20182;-55
2023/12/03 00:12:13;;;;;;;15.73;10.57;;;;;;;9.45;100.00;97359.78;5054837;28;20258;-55
2023/12/03 00:14:38;;;;;;;22.08;15.77;;;;;;;9.37;100.00;97333.78;5054849;28;20262;-55
2023/12/03 00:17:04;;;;;;;25.30;16.98;;;;;;;9.37;100.00;97347.47;5054651;28;20178;-55
2023/12/03 00:19:30;;;;;;;27.60;16.67;;;;;;;9.39;100.00;97363.66;5054580;28;20212;-55
2023/12/03 00:21:55;;;;;;;26.92;18.42;;;;;;;9.21;100.00;97346.25;5054666;28;20165;-54
2023/12/03 00:24:21;;;;;;;26.63;19.60;;;;;;;9.46;100.00;97370.00;5054684;28;20178;-54
2023/12/03 00:26:47;;;;;;;25.67;17.98;;;;;;;9.60;100.00;97398.09;5054557;28;20228;-55
2023/12/03 00:29:13;;;;;;;31.55;18.27;;;;;;;9.27;100.00;97340.63;5054562;28;20178;-55
2023/12/03 00:31:38;;;;;;;17.25;14.30;;;;;;;9.56;100.00;97404.44;5054457;28;20224;-55
2023/12/03 00:34:05;;;;;;;28.83;18.38;;;;;;;9.51;100.00;97424.66;5054372;28;20496;-55
2023/12/03 00:36:30;;;;;;;29.00;19.73;;;;;;;9.16;100.00;97389.66;5054368;28;20186;-55
2023/12/03 00:38:56;;;;;;;33.15;19.13;;;;;;;8.99;100.00;97366.97;5054298;28;20206;-55
2023/12/03 00:41:23;;;;;;;30.48;18.35;;;;;;;8.78;100.00;97338.50;5054383;28;20660;-55
2023/12/03 00:43:49;;;;;;;23.27;16.58;;;;;;;8.93;100.00;97368.28;5053813;28;20190;-55
2023/12/03 00:46:20;;;;;;;26.48;17.40;;;;;;;9.12;100.00;97389.09;5054170;28;20586;-55
2023/12/03 00:48:46;;;;;;;23.27;16.17;;;;;;;8.87;100.00;97358.44;5054271;28;20204;-55
2023/12/03 00:51:15;;;;;;;22.13;14.15;;;;;;;8.57;100.00;97314.38;5053897;28;20265;-55
2023/12/03 00:53:41;;;;;;;23.85;14.60;;;;;;;8.67;100.00;97351.41;5054042;28;20205;-55
2023/12/03 00:56:15;;;;;;;22.83;14.65;;;;;;;8.87;100.00;97404.88;5054063;28;20544;-54
2023/12/03 00:58:41;;;;;;;20.17;13.80;;;;;;;8.62;100.00;97363.03;5053916;28;20259;-55
2023/12/03 01:01:06;;;;;;;20.85;13.52;;;;;;;8.66;100.00;97375.56;5054025;28;20257;-55
2023/12/03 01:03:32;;;;;;;19.05;13.25;;;;;;;8.99;100.00;97440.03;5053065;28;20178;-55
2023/12/03 01:05:57;;;;;;;24.02;13.73;;;;;;;8.71;100.00;97409.56;5053899;28;20173;-55
2023/12/03 01:08:23;;;;;;;20.10;13.50;;;;;;;8.94;100.00;97456.78;5053798;28;20178;-55
2023/12/03 01:10:49;;;;;;;18.92;11.20;;;;;;;8.41;100.00;97370.66;5053730;28;20178;-55
2023/12/03 01:13:14;;;;;;;13.77;10.15;;;;;;;8.75;100.00;97425.59;5053977;28;20668;-55
2023/12/03 01:15:40;;;;;;;15.57;10.75;;;;;;;8.79;100.00;97429.59;5053297;28;20174;-55
2023/12/03 01:18:05;;;;;;;18.77;10.82;;;;;;;8.64;100.00;97413.56;5053603;28;20201;-55
2023/12/03 01:20:31;;;;;;;16.05;10.45;;;;;;;8.48;100.00;97386.47;5053492;28;20200;-55
2023/12/03 01:22:56;;;;;;;16.63;10.13;;;;;;;8.59;100.00;97395.03;5053539;28;20487;-54
2023/12/03 01:25:22;;;;;;;21.98;10.55;;;;;;;8.61;100.00;97406.03;5053823;28;20174;-55
2023/12/03 01:27:47;;;;;;;15.57;10.55;;;;;;;8.46;100.00;97384.00;5053401;28;20604;-55
2023/12/03 01:30:13;;;;;;;13.93;10.13;;;;;;;8.81;100.00;97432.88;5053463;28;20170;-55
2023/12/03 01:32:40;;;;;;;16.55;10.45;;;;;;;8.50;100.00;97369.94;5053397;28;20204;-55
2023/12/03 01:35:06;;;;;;;13.65;9.48;;;;;;;8.74;100.00;97429.13;5053277;28;20189;-54
2023/12/03 01:37:32;;;;;;;15.38;10.43;;;;;;;8.37;100.00;97347.78;5053248;28;20178;-55
2023/12/03 01:39:57;;;;;;;15.75;10.65;;;;;;;8.87;100.00;97427.25;5053191;28;20205;-54
2023/12/03 01:42:24;;;;;;;16.70;11.07;;;;;;;8.53;100.00;97358.56;5053243;28;20538;-55
2023/12/03 01:44:50;;;;;;;17.23;11.20;;;;;;;8.85;100.00;97421.41;5053378;28;20186;-54
2023/12/03 01:47:16;;;;;;;17.52;10.88;;;;;;;8.23;100.00;97314.53;5053152;28;20316;-55
2023/12/03 01:49:42;;;;;;;14.57;10.23;;;;;;;8.67;100.00;97392.66;5053068;28;20189;-55
2023/12/03 01:52:07;;;;;;;15.25;10.30;;;;;;;8.56;100.00;97377.19;5052995;28;20178;-54
2023/12/03 01:54:37;;;;;;;16.02;8.32;;;;;;;8.51;100.00;97386.25;5052960;28;20177;-55
2023/12/03 01:57:03;;;;;;;11.15;6.93;;;;;;;8.47;100.00;97366.78;5053188;28;20185;-54
2023/12/03 01:59:30;;;;;;;20.58;10.98;;;;;;;8.27;100.00;97336.56;5052788;28;20202;-55
2023/12/03 02:01:56;;;;;;;17.00;8.02;;;;;;;8.47;100.00;97374.50;5052837;28;20187;-54
2023/12/03 02:04:22;;;;;;;15.18;8.88;;;;;;;8.57;100.00;97375.47;5052799;28;20178;-55
2023/12/03 02:06:48;;;;;;;22.85;11.48;;;;;;;8.64;100.00;97392.94;5052741;28;20840;-55
2023/12/03 02:09:16;;;;;;;20.15;9.50;;;;;;;8.94;100.00;97430.97;5052752;28;20558;-54
2023/12/03 02:11:42;;;;;;;16.55;9.40;;;;;;;8.38;100.00;97341.72;5052611;28;20181;-55
2023/12/03 02:14:09;;;;;;;12.07;8.13;;;;;;;8.84;100.00;97415.41;5052543;28;20660;-55
2023/12/03 02:16:35;;;;;;;21.35;7.75;;;;;;;8.97;100.00;97441.88;5052512;28;20185;-55
2023/12/03 02:19:02;;;;;;;17.02;7.00;;;;;;;8.74;100.00;97413.66;5052446;28;20209;-55
2023/12/03 02:21:28;;;;;;;8.60;5.35;;;;;;;8.71;100.00;97401.00;5052479;28;20189;-54
2023/12/03 02:23:53;;;;;;;14.40;5.68;;;;;;;9.06;100.00;97467.00;5052420;28;20185;-54
2023/12/03 02:26:19;;;;;;;10.27;5.72;;;;;;;8.94;100.00;97447.28;5052426;28;20181;-55
2023/12/03 02:28:44;;;;;;;14.25;5.82;;;;;;;8.27;100.00;97327.06;5051994;28;20170;-55
2023/12/03 02:31:10;;;;;;;13.18;5.78;;;;;;;9.00;100.00;97451.97;5052304;28;20174;-55
2023/12/03 02:33:35;;;;;;;10.52;6.00;;;;;;;8.94;100.00;97436.16;5051874;28;20256;-55
2023/12/03 02:36:01;;;;;;;10.52;6.95;;;;;;;8.96;100.00;97435.09;5052176;28;20228;-55
2023/12/03 02:38:27;;;;;;;16.55;7.78;;;;;;;9.11;100.00;97446.81;5052406;28;20682;-55
2023/12/03 02:40:54;;;;;;;12.15;7.40;;;;;;;9.01;100.00;97443.28;5051960;28;20262;-55
2023/12/03 02:43:20;;;;;;;11.20;7.35;;;;;;;9.12;100.00;97456.19;5052026;28;20214;-55
2023/12/03 02:45:45;;;;;;;12.05;7.32;;;;;;;8.69;100.00;97408.84;5052262;28;20205;-55
2023/12/03 02:48:11;;;;;;;10.75;7.45;;;;;;;8.52;100.00;97388.72;5051974;28;20652;-55
2023/12/03 02:50:36;;;;;;;13.25;7.90;;;;;;;8.82;100.00;97437.94;5051948;28;20182;-55
2023/12/03 02:53:02;;;;;;;16.13;8.02;;;;;;;8.96;100.00;97457.50;5051864;28;20679;-55
2023/12/03 02:55:27;;;;;;;14.75;7.80;;;;;;;8.73;100.00;97412.81;5051757;28;20235;-55
2023/12/03 02:57:53;;;;;;;13.40;7.82;;;;;;;8.97;100.00;97436.72;5051705;28;20180;-55
2023/12/03 03:00:19;;;;;;;11.85;7.95;;;;;;;8.98;100.00;97440.13;5051656;28;20201;-55
2023/12/03 03:02:44;;;;;;;12.73;5.97;;;;;;;8.57;100.00;97380.63;5051589;28;20174;-55
2023/12/03 03:05:10;;;;;;;10.27;7.15;;;;;;;8.83;100.00;97421.50;5051665;28;20189;-55
2023/12/03 03:07:35;;;;;;;14.35;7.05;;;;;;;8.55;100.00;97383.31;5051533;28;20269;-55
2023/12/03 03:10:01;;;;;;;9.45;6.82;;;;;;;8.71;100.00;97419.88;5051619;28;20683;-55
2023/12/03 03:12:26;;;;;;;10.38;6.78;;;;;;;8.70;100.00;97415.66;5051565;28;20174;-55
2023/12/03 03:14:52;;;;;;;8.85;5.28;;;;;;;9.04;100.00;97478.34;5051555;28;20261;-55
2023/12/03 03:17:17;;;;;;;12.52;5.18;;;;;;;8.98;100.00;97464.16;5051317;28;20261;-54
2023/12/03 03:19:43;;;;;;;13.95;5.53;;;;;;;8.72;100.00;97428.41;5051411;28;20205;-55
2023/12/03 03:22:12;;;;;;;13.02;5.32;;;;;;;8.76;100.00;97443.56;5051374;28;20613;-54
2023/12/03 03:24:38;;;;;;;10.68;5.20;;;;;;;8.80;100.00;97451.88;5051450;28;20185;-55
2023/12/03 03:27:04;;;;;;;15.32;5.93;;;;;;;8.59;100.00;97420.81;5050989;28;20170;-54
2023/12/03 03:29:29;;;;;;;11.90;5.43;;;;;;;8.59;100.00;97431.13;5051371;28;20724;-54
2023/12/03 03:31:55;;;;;;;8.13;4.97;;;;;;;8.75;100.00;97459.13;5051071;28;20182;-55
2023/12/03 03:34:20;;;;;;;11.40;5.15;;;;;;;8.69;100.00;97447.50;5051360;28;20216;-55
2023/12/03 03:36:46;;;;;;;15.32;5.95;;;;;;;8.90;100.00;97492.31;5051341;28;20213;-55
2023/12/03 03:39:11;;;;;;;8.88;5.53;;;;;;;8.94;100.00;97498.88;5050950;28;20201;-55
2023/12/03 03:41:37;;;;;;;12.75;6.13;;;;;;;8.58;100.00;97434.66;5051242;28;20169;-55
2023/12/03 03:44:03;;;;;;;9.30;5.93;;;;;;;8.95;100.00;97497.09;5051486;28;20173;-55
2023/12/03 03:46:28;;;;;;;12.15;6.30;;;;;;;8.86;100.00;97483.16;5051091;28;20192;-55
2023/12/03 03:48:54;;;;;;;10.73;6.40;;;;;;;8.62;100.00;97438.59;5051166;28;20176;-55
2023/12/03 03:51:19;;;;;;;14.30;6.65;;;;;;;8.52;100.00;97429.97;5028614;28;20190;-55
2023/12/03 03:53:45;;;;;;;11.75;6.72;;;;;;;8.68;100.00;97451.03;5028674;28;20190;-55
2023/12/03 03:56:11;;;;;;;10.15;7.05;;;;;;;8.68;100.00;97461.34;5028649;28;20255;-55
2023/12/03 03:58:37;;;;;;;12.23;7.15;;;;;;;9.06;100.00;97507.44;5028620;28;20187;-54
2023/12/03 04:01:12;;;;;;;11.63;7.25;;;;;;;9.00;100.00;97502.75;5028646;28;20297;-55
2023/12/03 04:03:37;;;;;;;8.60;6.63;;;;;;;8.84;100.00;97479.88;5028812;28;20185;-55
2023/12/03 04:06:03;;;;;;;15.20;8.48;;;;;;;9.00;100.00;97518.22;5028662;28;20194;-55
2023/12/03 04:08:29;;;;;;;12.02;8.50;;;;;;;8.56;100.00;97428.75;5028569;28;20245;-54
2023/12/03 04:10:55;;;;;;;17.58;10.52;;;;;;;9.02;100.00;97495.72;5028615;28;20626;-55
2023/12/03 04:13:20;;;;;;;19.23;11.32;;;;;;;9.00;100.00;97493.25;5028659;28;20618;-55
2023/12/03 04:15:46;;;;;;;18.50;11.40;;;;;;;8.71;100.00;97442.25;5028534;28;20183;-55
2023/12/03 04:18:11;;;;;;;17.98;10.07;;;;;;;9.05;100.00;97498.88;5028443;28;20205;-55
2023/12/03 04:20:37;;;;;;;16.88;9.55;;;;;;;8.26;100.00;97374.38;5028547;28;20685;-54
2023/12/03 04:23:02;;;;;;;16.20;9.55;;;;;;;9.03;100.00;97497.38;5046145;28;20189;-54
2023/12/03 04:25:28;;;;;;;18.05;9.60;;;;;;;8.93;100.00;97476.63;5050814;28;20637;-54
2023/12/03 04:27:54;;;;;;;11.52;9.02;;;;;;;8.68;100.00;97440.72;5050732;28;20231;-55
2023/12/03 04:30:19;;;;;;;15.80;9.07;;;;;;;8.91;100.00;97499.09;5050908;28;20272;-55
2023/12/03 04:32:45;;;;;;;20.00;7.35;;;;;;;8.86;100.00;97484.94;5050751;28;20170;-55
2023/12/03 04:35:13;;;;;;;11.43;7.60;;;;;;;8.62;100.00;97451.50;5050783;28;20259;-55
2023/12/03 04:37:38;;;;;;;12.52;6.90;;;;;;;9.12;100.00;97536.19;5050772;28;20206;-55
2023/12/03 04:40:04;;;;;;;13.50;7.45;;;;;;;8.81;100.00;97482.72;5053939;28;20241;-55
2023/12/03 04:42:30;;;;;;;15.77;7.68;;;;;;;8.75;100.00;97461.72;5054237;28;20177;-56
2023/12/03 04:44:55;;;;;;;10.95;6.25;;;;;;;8.90;100.00;97481.16;5054257;28;20182;-56
2023/12/03 04:47:21;;;;;;;12.88;6.90;;;;;;;8.96;100.00;97491.84;5053977;28;20248;-56
2023/12/03 04:49:46;;;;;;;15.80;6.20;;;;;;;8.61;100.00;97443.88;5054230;28;20181;-56
2023/12/03 04:52:12;;;;;;;14.82;6.00;;;;;;;9.18;100.00;97542.63;5054208;28;20170;-56
2023/12/03 04:54:38;;;;;;;8.70;5.82;;;;;;;8.94;100.00;97513.53;5054149;28;20186;-56
2023/12/03 04:57:03;;;;;;;15.75;6.85;;;;;;;9.25;100.00;97565.25;5054031;28;20197;-56
2023/12/03 04:59:29;;;;;;;12.80;7.18;;;;;;;9.25;100.00;97560.09;5053962;28;20263;-56
2023/12/03 05:01:54;;;;;;;14.65;7.30;;;;;;;9.20;100.00;97557.03;5054015;28;20176;-55
2023/12/03 05:04:23;;;;;;;12.10;7.18;;;;;;;9.10;100.00;97527.72;5053982;28;20178;-55
2023/12/03 05:06:48;;;;;;;12.10;8.25;;;;;;;9.35;100.00;97563.63;5053798;28;20181;-55
2023/12/03 05:09:15;;;;;;;15.00;7.25;;;;;;;9.10;100.00;97529.50;5053614;28;20181;-55
2023/12/03 05:11:41;;;;;;;10.48;6.90;;;;;;;9.35;100.00;97571.38;5053725;28;20189;-55
2023/12/03 05:14:07;;;;;;;14.70;7.35;;;;;;;8.85;100.00;97488.44;5053744;28;20178;-56
2023/12/03 05:16:32;;;;;;;12.73;7.32;;;;;;;9.11;100.00;97528.53;5053948;28;20632;-55
2023/12/03 05:18:58;;;;;;;13.77;9.20;;;;;;;8.86;100.00;97485.72;5053483;28;20194;-53
2023/12/03 05:21:23;;;;;;;12.15;7.97;;;;;;;9.06;100.00;97522.91;5053838;28;20227;-53
2023/12/03 05:23:48;;;;;;;16.92;9.85;;;;;;;9.17;100.00;97536.66;5053431;28;20177;-53
2023/12/03 05:26:14;;;;;;;15.55;8.30;;;;;;;9.18;100.00;97530.53;5053470;28;20184;-54
2023/12/03 05:28:39;;;;;;;14.20;8.05;;;;;;;9.16;100.00;97529.84;5053520;28;20189;-55
2023/12/03 05:31:05;;;;;;;13.50;7.47;;;;;;;9.08;100.00;97511.53;5053096;28;20178;-55
2023/12/03 05:33:30;;;;;;;13.70;7.18;;;;;;;9.41;100.00;97570.91;5053405;28;20228;-56
2023/12/03 05:35:56;;;;;;;11.52;7.43;;;;;;;9.09;100.00;97526.06;5053118;28;20166;-56
2023/12/03 05:38:21;;;;;;;10.23;7.00;;;;;;;9.20;100.00;97528.66;5053301;28;20174;-56
2023/12/03 05:40:47;;;;;;;13.00;6.93;;;;;;;9.22;100.00;97534.53;5052956;28;20229;-56
2023/12/03 05:43:14;;;;;;;9.65;7.20;;;;;;;9.13;100.00;97513.75;5053249;28;20186;-55
2023/12/03 05:45:39;;;;;;;8.18;6.88;;;;;;;9.40;100.00;97553.78;5053144;28;20182;-56
2023/12/03 05:48:05;;;;;;;13.05;7.07;;;;;;;9.30;100.00;97539.94;5053040;28;20188;-56
2023/12/03 05:50:30;;;;;;;13.80;7.13;;;;;;;9.51;100.00;97576.16;5052761;28;20235;-55
2023/12/03 05:52:56;;;;;;;23.33;14.93;;;;;;;9.51;100.00;97568.44;5050444;28;20312;-56
2023/12/03 05:55:21;;;;;;;19.80;13.85;;;;;;;9.07;100.00;97506.50;5030417;28;20209;-55
2023/12/03 05:57:47;;;;;;;26.75;15.23;;;;;;;8.77;100.00;97441.78;5030511;28;20193;-56
2023/12/03 06:00:13;;;;;;;22.80;15.52;;;;;;;9.52;100.00;97559.72;5030229;28;20766;-56
2023/12/03 06:02:38;;;;;;;28.10;15.82;;;;;;;9.17;100.00;97497.94;5029961;28;20187;-56
2023/12/03 06:05:04;;;;;;;22.10;15.23;;;;;;;9.04;100.00;97489.47;5009943;28;20662;-56
2023/12/03 06:07:30;;;;;;;34.45;22.08;;;;;;;9.52;100.00;97563.94;5010458;28;20183;-56
2023/12/03 06:09:55;;;;;;;27.55;16.05;;;;;;;9.07;100.00;97483.28;5010747;28;20195;-56
2023/12/03 06:12:21;;;;;;;34.22;21.40;;;;;;;9.44;100.00;97562.09;5010494;28;20230;-56
2023/12/03 06:14:46;;;;;;;33.17;20.85;;;;;;;9.44;100.00;97565.47;5010286;28;20195;-56
2023/12/03 06:17:11;;;;;;;29.27;19.52;;;;;;;9.18;100.00;97512.47;5010286;28;20186;-56
2023/12/03 06:19:37;;;;;;;26.95;18.17;;;;;;;9.24;100.00;97524.91;5010303;28;20701;-56
2023/12/03 06:22:03;;;;;;;26.23;19.42;;;;;;;9.00;100.00;97472.63;5010275;28;20587;-55
2023/12/03 06:24:28;;;;;;;28.95;17.15;;;;;;;9.02;100.00;97478.47;5010219;28;20314;-56
2023/12/03 06:26:54;;;;;;;27.00;18.05;;;;;;;9.29;100.00;97529.72;5010225;28;20195;-56
2023/12/03 06:29:20;;;;;;;29.55;17.55;;;;;;;9.02;100.00;97491.38;5010215;28;20270;-56
2023/12/03 06:31:47;;;;;;;25.85;17.15;;;;;;;9.57;100.00;97585.06;5010159;28;20191;-56
2023/12/03 06:34:13;;;;;;;18.95;9.75;;;;;;;8.89;100.00;97480.34;5010140;28;20289;-56
2023/12/03 06:36:38;;;;;;;16.02;12.63;;;;;;;9.08;100.00;97521.84;5041345;28;20269;-55
2023/12/03 06:39:04;;;;;;;20.42;13.45;;;;;;;9.43;100.00;97578.53;5052039;28;20174;-56
2023/12/03 06:41:29;;;;;;;21.15;13.18;;;;;;;9.47;100.00;97575.59;5052035;28;20185;-56
2023/12/03 06:43:55;;;;;;;31.27;17.38;;;;;;;9.51;100.00;97587.34;5052001;28;20651;-56
2023/12/03 06:46:20;;;;;;;39.03;21.33;;;;;;;9.66;100.00;97600.81;5049473;28;20236;-56
2023/12/03 06:48:46;;;;;;;45.30;23.92;;;;;;;9.44;100.00;97580.97;5049474;28;20197;-56
2023/12/03 06:51:11;;;;;;;46.08;26.45;;;;;;;9.67;100.00;97623.91;5049522;28;20247;-55
2023/12/03 06:53:37;;;;;;;46.47;28.80;;;;;;;9.63;100.00;97617.38;5049479;28;20182;-56
2023/12/03 06:56:04;;;;;;;51.40;29.13;;;;;;;9.70;100.00;97628.88;5049319;28;20193;-56
2023/12/03 06:58:30;;;;;;;50.17;29.75;;;;;;;9.40;100.00;97577.00;5049359;28;20187;-56
2023/12/03 07:00:55;;;;;;;47.33;29.55;;;;;;;9.62;100.00;97612.31;5048512;28;20210;-56
2023/12/03 07:03:20;;;;;;;43.85;26.90;;;;;;;9.40;100.00;97577.00;5049334;28;20530;-56
2023/12/03 07:05:46;;;;;;;49.00;27.80;;;;;;;9.69;100.00;97633.19;5049168;28;20190;-56
2023/12/03 07:08:11;;;;;;;44.28;29.88;;;;;;;9.25;100.00;97544.63;5049244;28;20202;-56
2023/12/03 07:10:37;;;;;;;47.80;30.33;;;;;;;9.66;100.00;97617.13;5049165;28;20181;-56
2023/12/03 07:13:03;;;;;;;44.47;28.92;;;;;;;9.48;100.00;97587.56;5049064;28;20189;-55
2023/12/03 07:15:28;;;;;;;48.47;31.15;;;;;;;9.73;100.00;97626.88;5049114;28;20174;-55
2023/12/03 07:17:55;;;;;;;43.03;27.80;;;;;;;9.46;100.00;97578.28;5050546;28;20641;-55
2023/12/03 07:20:23;;;;;;;46.70;29.23;;;;;;;9.67;100.00;97608.44;5048734;28;20249;-55
2023/12/03 07:22:48;;;;;;;52.55;30.88;;;;;;;9.47;100.00;97585.91;5048961;28;20225;-55
2023/12/03 07:25:14;;;;;;;47.63;29.95;;;;;;;9.58;100.00;97596.25;5049289;28;20717;-55
2023/12/03 07:27:39;;;;;;;43.33;29.73;;;;;;;9.78;100.00;97627.34;5049030;28;20173;-55
2023/12/03 07:30:06;;;;;;;55.92;35.90;;;;;;;9.57;100.00;97592.03;5068723;28;20232;-55
2023/12/03 07:32:31;;;;;;;57.50;35.10;;;;;;;9.88;100.00;97638.56;5068882;28;20223;-55
2023/12/03 07:34:57;;;;;;;57.88;35.55;;;;;;;9.46;100.00;97568.78;5068912;28;20212;-56
2023/12/03 07:37:22;;;;;;;61.05;37.15;;;;;;;9.68;100.00;97616.06;5068809;28;20574;-56
2023/12/03 07:39:48;;;;;;;65.13;39.47;;;;;;;9.86;100.00;97639.66;5068726;28;20217;-56
2023/12/03 07:42:13;;;;;;;78.20;46.17;;;;;;;9.51;100.00;97576.16;5069150;28;20281;-55
2023/12/03 07:44:39;;;;;;;64.00;43.00;;;;;;;9.83;100.00;97634.72;5068814;28;20691;-56
2023/12/03 07:47:05;;;;;;;81.55;48.90;;;;;;;9.51;100.00;97581.34;5068752;28;20239;-56
2023/12/03 07:49:30;;;;;;;115.10;68.70;;;;;;;9.33;100.00;97573.22;5068707;28;20189;-56
2023/12/03 07:51:56;;;;;;;91.75;54.72;;;;;;;9.50;100.00;97585.66;5068694;28;20189;-55
2023/12/03 07:54:22;;;;;;;96.75;56.88;;;;;;;9.63;100.00;97616.53;5068801;28;20205;-56
2023/12/03 07:56:47;;;;;;;90.22;54.75;;;;;;;9.65;100.00;97607.72;5068652;28;20282;-55
2023/12/03 07:59:12;;;;;;;93.35;53.15;;;;;;;9.59;100.00;97600.47;5068612;28;20588;-56
2023/12/03 08:01:38;;;;;;;95.50;55.97;;;;;;;10.03;100.00;97659.81;5055365;28;20230;-56
2023/12/03 08:04:04;;;;;;;90.22;54.35;;;;;;;10.05;100.00;97665.75;5051036;28;20176;-56
2023/12/03 08:06:30;;;;;;;114.03;58.17;;;;;;;9.80;100.00;97606.56;5050509;28;20185;-56
2023/12/03 08:08:57;;;;;;;97.63;56.13;;;;;;;9.68;100.00;97585.06;5047747;28;20181;-56
2023/12/03 08:11:22;;;;;;;100.47;59.20;;;;;;;10.20;100.00;97669.69;5050777;28;20227;-56
2023/12/03 08:13:48;;;;;;;93.55;56.80;;;;;;;10.08;100.00;97657.72;5053206;28;20190;-56
2023/12/03 08:16:14;;;;;;;87.22;55.33;;;;;;;10.21;100.00;97682.50;5051856;28;20178;-56
2023/12/03 08:18:39;;;;;;;83.10;52.85;;;;;;;10.37;100.00;97693.28;5051999;28;20763;-56
2023/12/03 08:21:05;;;;;;;99.85;55.17;;;;;;;10.28;100.00;97672.50;5071970;28;20216;-56
2023/12/03 08:23:32;;;;;;;77.97;47.90;;;;;;;10.10;100.00;97645.53;5072206;28;20287;-56
2023/12/03 08:25:58;;;;;;;61.45;39.58;;;;;;;10.06;100.00;97626.03;5072161;28;20193;-56
2023/12/03 08:28:24;;;;;;;65.95;41.47;;;;;;;10.13;100.00;97641.88;5072142;28;20178;-56
2023/12/03 08:30:49;;;;;;;72.72;42.90;;;;;;;9.99;100.00;97623.06;5072027;28;20201;-56
2023/12/03 08:33:15;;;;;;;74.50;43.70;;;;;;;10.46;100.00;97702.09;5071962;28;20671;-55
2023/12/03 08:35:41;;;;;;;53.53;34.22;;;;;;;10.42;100.00;97693.75;5071834;28;20646;-55
2023/12/03 08:38:07;;;;;;;64.60;37.50;;;;;;;9.91;100.00;97622.84;5071883;28;20192;-56
2023/12/03 08:40:32;;;;;;;58.92;35.38;;;;;;;10.03;100.00;97636.56;5071820;28;20221;-56
2023/12/03 08:42:59;;;;;;;48.97;31.10;;;;;;;10.08;100.00;97631.88;5071806;28;20189;-55
2023/12/03 08:45:25;;;;;;;50.15;29.05;;;;;;;10.47;100.00;97696.78;5071852;28;20184;-55
2023/12/03 08:47:50;;;;;;;49.65;33.45;;;;;;;10.23;100.00;97664.28;5071702;28;20203;-55
2023/12/03 08:50:16;;;;;;;48.70;33.25;;;;;;;10.54;100.00;97704.88;5071657;28;20188;-55
2023/12/03 08:52:41;;;;;;;50.47;33.80;;;;;;;10.51;100.00;97710.31;5058021;28;20181;-55
2023/12/03 08:55:08;;;;;;;51.05;31.05;;;;;;;10.29;100.00;97662.06;5053739;28;20571;-55
2023/12/03 08:57:34;;;;;;;45.83;24.38;;;;;;;10.36;100.00;97668.38;5054086;28;20265;-55
2023/12/03 08:59:59;;;;;;;35.08;22.83;;;;;;;10.64;100.00;97705.78;5053965;28;20201;-55
2023/12/03 09:02:25;;;;;;;38.00;24.77;;;;;;;10.65;100.00;97699.66;5053706;28;20177;-55
2023/12/03 09:04:51;;;;;;;37.92;23.70;;;;;;;10.68;100.00;97702.03;5054042;28;20220;-55
2023/12/03 09:07:16;;;;;;;34.08;23.17;;;;;;;10.59;100.00;97697.56;5053937;28;20564;-55
2023/12/03 09:09:45;;;;;;;39.90;25.40;;;;;;;10.51;100.00;97681.84;5053561;28;20543;-55
2023/12/03 09:12:11;;;;;;;40.72;26.13;;;;;;;10.65;100.00;97713.44;5053821;28;20182;-55
2023/12/03 09:14:36;;;;;;;44.08;26.25;;;;;;;10.67;100.00;97698.59;5053803;28;20174;-55
2023/12/03 09:17:03;;;;;;;40.10;22.65;;;;;;;10.92;100.00;97720.75;5053620;28;20166;-55
2023/12/03 09:19:29;;;;;;;34.63;20.52;;;;;;;10.68;100.00;97663.22;5053594;28;20255;-55
2023/12/03 09:21:55;;;;;;;33.85;20.77;;;;;;;10.98;100.00;97715.88;5053632;28;20260;-55
2023/12/03 09:24:20;;;;;;;32.58;20.60;;;;;;;11.05;100.00;97721.38;5053164;28;20182;-55
2023/12/03 09:26:47;;;;;;;32.58;19.80;;;;;;;10.84;100.00;97671.34;5053535;28;20181;-55
2023/12/03 09:29:13;;;;;;;33.55;20.30;;;;;;;11.00;100.00;97708.00;5053467;28;20316;-55
2023/12/03 09:31:39;;;;;;;41.33;23.58;;;;;;;10.63;100.00;97663.56;5030940;28;20194;-55
2023/12/03 09:34:06;;;;;;;35.05;23.35;;;;;;;10.66;100.00;97662.50;5030969;28;20243;-55
2023/12/03 09:36:31;;;;;;;39.70;25.10;;;;;;;10.84;100.00;97697.22;5031029;28;20191;-55
2023/12/03 09:38:57;;;;;;;37.47;24.98;;;;;;;11.16;100.00;97736.88;5030966;28;20186;-55
2023/12/03 09:41:24;;;;;;;40.72;26.25;;;;;;;10.91;100.00;97693.22;5030837;28;20308;-55
2023/12/03 09:43:59;;;;;;;41.55;27.25;;;;;;;11.03;100.00;97718.13;5030923;28;20179;-55
2023/12/03 09:46:30;;;;;;;37.85;26.75;;;;;;;11.24;100.00;97750.00;5030794;28;20197;-55
2023/12/03 09:49:00;;;;;;;43.25;27.05;;;;;;;11.21;100.00;97739.91;5030859;28;20190;-55
2023/12/03 09:51:27;;;;;;;39.53;28.02;;;;;;;11.27;100.00;97744.59;5030721;28;20186;-55
2023/12/03 09:53:55;;;;;;;32.92;21.60;;;;;;;11.34;100.00;97748.31;5030710;28;20253;-55
2023/12/03 09:56:23;;;;;;;37.30;24.48;;;;;;;11.40;100.00;97753.81;5030541;28;20175;-55
2023/12/03 09:58:49;;;;;;;34.88;21.13;;;;;;;11.13;100.00;97713.81;5030501;28;20941;-55
2023/12/03 10:01:16;;;;;;;58.50;28.10;;;;;;;11.51;100.00;97761.53;5030246;28;20217;-55
2023/12/03 10:03:42;;;;;;;69.43;36.15;;;;;;;11.18;100.00;97702.16;5051219;28;20204;-55
2023/12/03 10:06:09;;;;;;;63.47;33.38;;;;;;;11.58;100.00;97752.34;5052420;28;20634;-55
2023/12/03 10:08:35;;;;;;;61.17;33.53;;;;;;;11.38;100.00;97719.44;5052334;28;20236;-55
2023/12/03 10:11:05;;;;;;;67.53;36.22;;;;;;;11.58;100.00;97730.75;5052392;28;20338;-55
2023/12/03 10:13:31;;;;;;;69.72;38.28;;;;;;;11.70;100.00;97742.72;5052196;28;20185;-55
2023/12/03 10:15:57;;;;;;;56.10;33.55;;;;;;;11.63;100.00;97732.06;5051798;28;20273;-55
2023/12/03 10:18:23;;;;;;;35.20;19.88;;;;;;;11.68;100.00;97716.13;5052018;28;20200;-55
2023/12/03 10:21:03;;;;;;;47.15;26.25;;;;;;;11.56;100.00;97707.53;5051987;28;20581;-55
2023/12/03 10:23:29;;;;;;;31.48;19.52;;;;;;;11.75;100.00;97751.75;5052131;28;20178;-55
2023/12/03 10:26:08;;;;;;;32.67;19.50;;;;;;;11.77;100.00;97747.25;5029378;28;20208;-55
2023/12/03 10:28:34;;;;;;;32.45;17.20;;;;;;;11.85;100.00;97757.78;5029570;28;20186;-55
2023/12/03 10:31:00;;;;;;;29.88;15.65;;;;;;;11.85;100.00;97742.25;5029477;28;20221;-56
2023/12/03 10:33:26;;;;;;;24.30;11.85;;;;;;;11.91;100.00;97727.97;5029330;28;20670;-56
2023/12/03 10:35:51;;;;;;;17.27;9.10;;;;;;;11.55;100.00;97641.16;5028420;28;20275;-55
2023/12/03 10:38:17;;;;;;;15.88;7.95;;;;;;;11.99;100.00;97713.41;5029263;28;20179;-56
2023/12/03 10:40:42;;;;;;;12.88;8.38;;;;;;;12.06;100.00;97721.47;5029091;28;20218;-56
2023/12/03 10:43:11;;;;;;;23.17;12.40;;;;;;;11.67;100.00;97653.09;5009211;28;20815;-56
2023/12/03 10:45:36;;;;;;;32.95;20.85;;;;;;;12.14;100.00;97711.28;5009422;28;20219;-55
2023/12/03 10:48:04;;;;;;;42.72;26.02;;;;;;;12.27;100.00;97730.00;5009449;28;20191;-56
2023/12/03 10:50:30;;;;;;;36.03;23.15;;;;;;;11.78;100.00;97639.25;5009273;28;20187;-55
2023/12/03 10:52:58;;;;;;;38.67;24.58;;;;;;;11.78;100.00;97632.28;5009624;28;20227;-55
2023/12/03 10:55:24;;;;;;;52.47;31.42;;;;;;;11.87;100.00;97649.63;5009405;28;20190;-55
2023/12/03 10:57:56;;;;;;;62.15;36.20;;;;;;;12.35;100.00;97723.19;5044652;28;20190;-55
2023/12/03 11:00:24;;;;;;;73.85;43.30;;;;;;;12.40;100.00;97730.59;5048951;28;20688;-55
2023/12/03 11:03:04;;;;;;;66.05;38.58;;;;;;;12.01;100.00;97661.41;5048891;28;20196;-55
2023/12/03 11:05:38;;;;;;;53.70;31.20;;;;;;;12.05;100.00;97660.19;5048760;28;20192;-55
2023/12/03 11:08:04;;;;;;;56.10;32.63;;;;;;;12.05;100.00;97637.69;5048851;28;20197;-55
2023/12/03 11:10:31;;;;;;;48.28;29.70;;;;;;;12.41;100.00;97695.91;5048894;28;20236;-55